Time;durP1;ratioP1;P1;durP2;ratioP2;P2;SDS_P1;SDS_P2;PMS_P1;PMS_P2;Temp;Humidity;BMP_temperature;BMP_pressure;BME280_temperature;BME280_humidity;BME280_pressure;Samples;Min_cycle;Max_cycle;Signal;HPM_P1;HPM_P2
2022/08/15 00:02:00;;;;;;;20.97;17.05;;;;;;;18.68;89.97;99459.53;2138984;81;33801;-66
2022/08/15 00:05:01;;;;;;;21.77;16.85;;;;;;;18.63;89.90;99454.56;2167563;81;29528;-67
2022/08/15 00:08:06;;;;;;;23.40;16.80;;;;;;;18.57;89.99;99453.78;2168434;80;27489;-64
2022/08/15 00:11:12;;;;;;;17.23;15.00;;;;;;;18.52;89.95;99452.88;2131337;81;28841;-64
2022/08/15 00:14:24;;;;;;;20.27;17.40;;;;;;;18.48;89.89;99463.67;2129268;80;31865;-65
2022/08/15 00:17:26;;;;;;;18.82;16.25;;;;;;;18.46;90.35;99456.70;2152843;80;33009;-64
2022/08/15 00:20:27;;;;;;;23.05;17.65;;;;;;;18.44;90.23;99455.98;2153871;81;29350;-65
2022/08/15 00:23:29;;;;;;;25.60;18.15;;;;;;;18.43;90.38;99454.27;2132967;82;27553;-65
2022/08/15 00:26:34;;;;;;;20.43;17.70;;;;;;;18.40;90.27;99458.63;2122664;83;28826;-65
2022/08/15 00:29:36;;;;;;;19.57;17.42;;;;;;;18.37;90.33;99455.72;2123178;82;31782;-65
2022/08/15 00:32:38;;;;;;;19.20;15.83;;;;;;;18.34;90.30;99460.08;2129745;83;32972;-65
2022/08/15 00:35:43;;;;;;;23.15;18.30;;;;;;;18.32;90.39;99462.08;2118949;82;30154;-65
2022/08/15 00:38:45;;;;;;;29.45;24.37;;;;;;;18.32;90.63;99467.50;2109597;82;27522;-65
2022/08/15 00:41:50;;;;;;;24.98;19.73;;;;;;;18.32;90.84;99472.44;2104096;82;28665;-65
2022/08/15 00:44:54;;;;;;;26.73;19.85;;;;;;;18.32;91.07;99471.09;2115659;82;31011;-65
2022/08/15 00:51:29;;;;;;;26.87;20.68;;;;;;;18.36;91.32;99470.28;2122949;82;29210;-65
2022/08/15 00:54:44;;;;;;;22.07;18.40;;;;;;;18.38;91.60;99473.19;2160174;81;27540;-65
2022/08/15 00:57:48;;;;;;;24.70;18.98;;;;;;;18.43;91.79;99470.55;2168946;81;28688;-65
2022/08/15 01:00:50;;;;;;;23.22;18.15;;;;;;;18.44;91.80;99460.05;2155484;81;31061;-64
2022/08/15 01:03:52;;;;;;;23.45;19.40;;;;;;;18.45;91.72;99465.31;2168112;82;33003;-66
2022/08/15 01:06:58;;;;;;;23.52;18.32;;;;;;;18.46;91.77;99468.38;2161336;81;30319;-65
2022/08/15 01:09:58;;;;;;;25.40;19.52;;;;;;;18.45;91.69;99465.83;2152278;81;27549;-68
2022/08/15 01:12:59;;;;;;;30.20;21.33;;;;;;;18.44;91.54;99466.34;2157237;82;28681;-64
2022/08/15 01:16:01;;;;;;;21.23;18.20;;;;;;;18.42;91.51;99457.50;2163684;80;31018;-67
2022/08/15 01:19:08;;;;;;;23.52;18.37;;;;;;;18.42;91.57;99457.50;2157498;81;33054;-64
2022/08/15 01:22:23;;;;;;;23.27;19.65;;;;;;;18.40;91.49;99460.86;2139770;80;29351;-65
2022/08/15 01:25:59;;;;;;;24.67;20.52;;;;;;;18.39;91.57;99459.14;2115971;82;27485;-67
2022/08/15 01:29:00;;;;;;;;;;;;;;;18.36;91.45;99468.44;2123658;83;28697;-67
2022/08/15 01:32:02;;;;;;;23.47;18.15;;;;;;;18.34;91.49;99457.37;2124644;82;31236;-66
2022/08/15 01:35:05;;;;;;;23.87;21.05;;;;;;;18.31;91.54;99451.75;2112060;82;33915;-65
2022/08/15 01:38:28;;;;;;;31.75;23.90;;;;;;;18.30;91.61;99445.09;2123754;82;29359;-64
2022/08/15 01:41:35;;;;;;;26.60;20.50;;;;;;;18.27;91.54;99444.91;2121170;82;27864;-65
2022/08/15 01:44:42;;;;;;;26.33;20.17;;;;;;;18.25;91.50;99423.86;2118458;82;29502;-65
2022/08/15 01:47:52;;;;;;;23.50;19.95;;;;;;;18.21;91.23;99427.86;2119025;82;31067;-66
2022/08/15 01:50:58;;;;;;;27.50;21.00;;;;;;;18.19;91.28;99429.37;2102857;82;32971;-64
2022/08/15 01:54:07;;;;;;;27.17;20.85;;;;;;;18.18;91.40;99428.18;2148116;81;30096;-64
2022/08/15 01:57:09;;;;;;;24.30;20.20;;;;;;;18.17;91.46;99430.53;2148870;81;27513;-64
2022/08/15 02:00:12;;;;;;;24.52;20.95;;;;;;;18.15;91.50;99428.47;2162432;82;28717;-66
2022/08/15 02:03:13;;;;;;;24.47;20.10;;;;;;;18.13;91.51;99432.66;2127129;82;30965;-66
2022/08/15 02:06:23;;;;;;;26.57;19.87;;;;;;;18.11;91.41;99433.82;2162944;81;33128;-64
2022/08/15 02:09:25;;;;;;;25.75;18.00;;;;;;;18.09;91.47;99429.05;2153386;81;29366;-64
2022/08/15 02:12:31;;;;;;;20.02;17.05;;;;;;;18.04;91.24;99431.69;2161442;81;28078;-65
2022/08/15 02:15:33;;;;;;;21.93;18.20;;;;;;;18.03;91.17;99431.84;2161581;82;28676;-64
2022/08/15 02:18:35;;;;;;;23.42;19.15;;;;;;;18.01;91.14;99432.48;2130379;82;31119;-63
2022/08/15 02:21:38;;;;;;;25.35;18.60;;;;;;;17.97;91.28;99433.25;2125069;82;33800;-64
2022/08/15 02:24:39;;;;;;;23.30;18.50;;;;;;;17.96;91.36;99426.60;2119580;82;29356;-63
2022/08/15 02:27:44;;;;;;;20.25;17.70;;;;;;;17.94;91.21;99432.70;2123889;83;27580;-63
2022/08/15 02:30:46;;;;;;;20.50;18.00;;;;;;;17.91;91.20;99431.98;2120564;83;28833;-64
2022/08/15 02:33:55;;;;;;;23.00;17.87;;;;;;;17.88;91.00;99427.33;2123347;82;31034;-64
2022/08/15 02:36:57;;;;;;;23.75;17.67;;;;;;;17.84;91.00;99420.00;2124330;82;32986;-67
2022/08/15 02:39:58;;;;;;;23.00;18.80;;;;;;;17.83;91.10;99428.29;2114512;82;29447;-64
2022/08/15 02:43:07;;;;;;;19.48;17.02;;;;;;;17.80;91.14;99421.80;2124260;83;27641;-63
2022/08/15 02:46:09;;;;;;;23.83;19.05;;;;;;;17.78;91.22;99430.08;2123284;83;28750;-64
2022/08/15 02:49:12;;;;;;;20.72;16.30;;;;;;;17.75;91.58;99424.44;2150461;80;31108;-67
2022/08/15 02:52:13;;;;;;;21.52;17.65;;;;;;;17.76;91.49;99425.30;2152720;80;33870;-64
2022/08/15 02:55:15;;;;;;;24.60;18.60;;;;;;;17.74;91.46;99424.08;2167403;81;30096;-65
2022/08/15 02:58:16;;;;;;;24.98;19.50;;;;;;;17.74;91.58;99434.07;2134244;80;27633;-66
2022/08/15 03:01:20;;;;;;;21.10;17.70;;;;;;;17.72;91.58;99423.88;2157004;81;28762;-64
2022/08/15 03:04:23;;;;;;;22.95;18.95;;;;;;;17.72;91.57;99426.58;2156150;81;31001;-64
2022/08/15 03:07:25;;;;;;;23.12;20.32;;;;;;;17.69;91.49;99423.67;2159519;81;33759;-63
2022/08/15 03:10:27;;;;;;;17.92;16.02;;;;;;;17.69;91.53;99418.26;2144822;81;29354;-67
2022/08/15 03:13:28;;;;;;;22.85;17.40;;;;;;;17.67;91.48;99412.61;2154935;80;27481;-64
2022/08/15 03:16:30;;;;;;;21.42;17.48;;;;;;;17.66;91.46;99410.41;2152782;80;28675;-64
2022/08/15 03:19:32;;;;;;;24.60;16.73;;;;;;;17.65;91.38;99414.60;2131421;83;31139;-64
2022/08/15 03:22:46;;;;;;;20.35;17.42;;;;;;;17.63;91.50;99414.76;2105025;82;33577;-65
2022/08/15 03:25:52;;;;;;;21.40;18.27;;;;;;;17.62;91.45;99417.11;2124925;82;29429;-64
2022/08/15 03:28:54;;;;;;;24.02;18.82;;;;;;;17.63;91.50;99409.34;2131529;82;27494;-63
2022/08/15 03:31:55;;;;;;;25.25;19.52;;;;;;;17.61;91.55;99404.08;2119454;82;29643;-64
2022/08/15 03:34:57;;;;;;;25.57;21.17;;;;;;;17.61;91.75;99408.63;2130816;83;31044;-63
2022/08/15 03:38:00;;;;;;;26.45;22.13;;;;;;;17.61;92.07;99404.08;2132072;82;33073;-63
2022/08/15 03:41:03;;;;;;;27.87;21.70;;;;;;;17.61;92.16;99402.73;2115224;83;29357;-63
2022/08/15 03:44:04;;;;;;;30.95;23.27;;;;;;;17.64;92.30;99395.28;2119837;82;27513;-63
2022/08/15 03:47:06;;;;;;;31.97;23.70;;;;;;;17.62;92.40;99388.67;2132429;82;29454;-64
2022/08/15 03:50:08;;;;;;;30.17;22.75;;;;;;;17.65;92.43;99388.87;2169037;82;31071;-64
2022/08/15 03:53:09;;;;;;;28.12;22.35;;;;;;;17.68;92.43;99387.23;2154666;80;33017;-64
2022/08/15 03:56:18;;;;;;;31.75;23.25;;;;;;;17.68;92.44;99382.69;2153520;80;29353;-64
2022/08/15 03:59:20;;;;;;;30.25;23.77;;;;;;;17.70;92.45;99378.47;2167018;81;27572;-64
2022/08/15 04:02:24;;;;;;;28.17;23.12;;;;;;;17.73;92.53;99381.73;2169113;80;29566;-63
2022/08/15 04:05:26;;;;;;;28.87;24.15;;;;;;;17.79;92.67;99388.41;2160214;82;31055;-64
2022/08/15 04:08:30;;;;;;;34.45;25.40;;;;;;;17.84;92.67;99388.00;2156073;82;33832;-64
2022/08/15 04:11:32;;;;;;;28.00;24.55;;;;;;;17.91;92.69;99387.75;2135972;80;29367;-64
2022/08/15 04:14:33;;;;;;;30.80;24.05;;;;;;;17.96;92.80;99377.34;2158266;82;27811;-64
2022/08/15 04:17:35;;;;;;;29.65;22.67;;;;;;;18.04;92.78;99374.77;2138637;81;28772;-65
2022/08/15 04:20:37;;;;;;;28.47;24.43;;;;;;;18.12;92.74;99381.31;2132164;82;31055;-65
2022/08/15 04:23:42;;;;;;;32.78;24.27;;;;;;;18.18;92.62;99387.52;2122813;82;33775;-65
2022/08/15 04:26:44;;;;;;;31.05;24.35;;;;;;;18.25;92.49;99387.77;2123811;83;30134;-66
2022/08/15 04:29:45;;;;;;;29.63;24.77;;;;;;;18.31;92.39;99376.31;2123391;82;27668;-64
2022/08/15 04:32:46;;;;;;;34.90;27.80;;;;;;;18.35;92.34;99388.09;2118606;83;28753;-67
2022/08/15 04:35:52;;;;;;;34.55;26.80;;;;;;;18.40;92.28;99376.79;2130106;83;31824;-64
2022/08/15 04:38:53;;;;;;;35.30;27.62;;;;;;;18.46;92.27;99383.47;2124929;83;33101;-64
2022/08/15 04:41:54;;;;;;;34.88;25.65;;;;;;;18.52;92.25;99383.72;2110490;83;29387;-64
2022/08/15 04:44:55;;;;;;;34.10;27.45;;;;;;;18.58;92.03;99375.99;2111255;83;27789;-64
2022/08/15 04:48:03;;;;;;;31.97;27.48;;;;;;;18.66;92.14;99379.66;2130195;82;28699;-65
2022/08/15 04:51:05;;;;;;;35.45;27.65;;;;;;;18.79;92.57;99378.44;2151823;80;31024;-65
2022/08/15 04:54:07;;;;;;;38.55;28.83;;;;;;;18.94;92.53;99383.72;2150538;81;33793;-64
2022/08/15 04:57:09;;;;;;;32.50;26.37;;;;;;;19.10;92.36;99379.47;2152636;80;29333;-65
2022/08/15 05:00:15;;;;;;;34.70;28.07;;;;;;;19.28;92.38;99376.26;2126432;80;27503;-64
2022/08/15 05:03:19;;;;;;;34.15;28.67;;;;;;;19.58;92.46;99376.02;2159912;82;29257;-65
2022/08/15 05:06:21;;;;;;;36.63;30.37;;;;;;;20.00;93.03;99380.74;2153976;81;31187;-64
2022/08/15 05:09:22;;;;;;;32.73;27.13;;;;;;;20.42;92.94;99382.34;2139991;80;33105;-64
2022/08/15 05:12:24;;;;;;;34.65;27.00;;;;;;;20.65;90.97;99378.00;2159619;81;29335;-64
2022/08/15 05:15:25;;;;;;;32.23;26.60;;;;;;;20.85;90.45;99376.93;2158426;82;27643;-64
2022/08/15 05:18:28;;;;;;;28.75;23.85;;;;;;;21.13;89.77;99373.39;2117679;82;28785;-68
2022/08/15 05:21:30;;;;;;;30.40;24.37;;;;;;;21.40;89.43;99370.03;2129606;83;31818;-66
2022/08/15 05:24:31;;;;;;;29.32;24.15;;;;;;;21.59;88.83;99374.28;2138660;81;32998;-66
2022/08/15 05:27:33;;;;;;;29.42;24.12;;;;;;;21.78;88.26;99382.64;2146195;82;30236;-65
2022/08/15 05:30:34;;;;;;;28.12;24.60;;;;;;;22.02;87.95;99376.83;2158155;82;27577;-66
2022/08/15 05:33:37;;;;;;;27.42;24.25;;;;;;;22.29;87.82;99374.20;2147434;82;28668;-65
2022/08/15 05:36:38;;;;;;;26.25;23.18;;;;;;;22.55;87.41;99374.99;2154314;82;31064;-65
2022/08/15 05:39:42;;;;;;;30.00;22.70;;;;;;;22.78;86.82;99378.28;2168072;81;32860;-66
2022/08/15 05:42:54;;;;;;;29.27;22.62;;;;;;;22.94;85.98;99378.72;2147507;80;30127;-65
2022/08/15 05:46:16;;;;;;;29.90;24.90;;;;;;;23.06;85.59;99371.81;2158716;82;27489;-65
2022/08/15 05:49:41;;;;;;;24.57;21.37;;;;;;;23.12;85.03;99376.56;2134186;81;28651;-64
2022/08/15 05:52:59;;;;;;;27.15;23.25;;;;;;;23.21;83.76;99380.96;2141088;80;31192;-65
2022/08/15 05:56:43;;;;;;;25.57;21.82;;;;;;;23.23;83.67;99379.93;2106190;83;33751;-65
2022/08/15 05:59:50;;;;;;;24.87;21.77;;;;;;;23.19;82.47;99395.28;2124064;82;29049;-65
2022/08/15 06:02:59;;;;;;;30.60;22.93;;;;;;;23.09;81.14;99396.05;2130918;83;27524;-65
2022/08/15 06:06:09;;;;;;;28.23;21.82;;;;;;;23.08;81.87;99398.97;2110464;82;28744;-64
2022/08/15 06:09:40;;;;;;;24.72;20.95;;;;;;;23.27;82.08;99396.30;2128123;83;31058;-65
2022/08/15 06:12:47;;;;;;;27.02;20.95;;;;;;;23.50;81.71;99392.20;2117133;83;33005;-65
2022/08/15 06:16:18;;;;;;;27.60;22.02;;;;;;;23.53;79.79;99387.74;2118665;82;29389;-65
2022/08/15 06:19:24;;;;;;;24.80;22.07;;;;;;;23.46;78.15;99390.86;2152761;82;27850;-66
2022/08/15 06:22:58;;;;;;;25.15;22.48;;;;;;;23.33;78.79;99390.13;2161196;81;28670;-65
2022/08/15 06:26:31;;;;;;;28.98;21.10;;;;;;;23.33;79.22;99390.96;2154153;82;31058;-64
2022/08/15 06:30:06;;;;;;;27.30;21.42;;;;;;;23.50;79.35;99391.67;2054551;84;33766;-65
2022/08/15 06:33:31;;;;;;;27.00;22.30;;;;;;;23.70;78.64;99398.02;2051642;85;30307;-64
2022/08/15 06:36:53;;;;;;;23.55;21.10;;;;;;;24.03;79.86;99388.69;2050513;85;27657;-66
2022/08/15 06:40:20;;;;;;;24.23;20.05;;;;;;;24.51;78.71;99399.27;2050639;85;28863;-63
2022/08/15 06:43:22;;;;;;;24.20;20.68;;;;;;;25.03;78.58;99385.95;2053729;85;31926;-66
2022/08/15 06:46:32;;;;;;;23.40;20.90;;;;;;;25.60;77.21;99381.17;2054624;84;33072;-65
2022/08/15 06:49:37;;;;;;;24.77;21.40;;;;;;;25.73;74.85;99385.39;2022033;86;29348;-65
2022/08/15 06:52:40;;;;;;;28.60;20.95;;;;;;;25.80;75.16;99382.73;2022872;86;27596;-64
2022/08/15 06:56:01;;;;;;;27.95;21.33;;;;;;;26.20;74.88;99378.92;2019919;84;28660;-65
2022/08/15 06:59:19;;;;;;;24.43;21.40;;;;;;;26.54;73.35;99388.20;2020272;85;31094;-67
2022/08/15 07:02:46;;;;;;;24.00;21.02;;;;;;;26.89;72.93;99393.35;2023103;85;33064;-64
2022/08/15 07:05:54;;;;;;;26.70;20.72;;;;;;;27.07;72.44;99393.63;2045571;82;29375;-66
2022/08/15 07:09:00;;;;;;;26.42;20.75;;;;;;;27.22;72.11;99393.98;2119791;82;27820;-64
2022/08/15 07:12:25;;;;;;;22.70;20.25;;;;;;;27.43;71.49;99391.07;2114618;82;28698;-67
2022/08/15 07:15:56;;;;;;;28.30;22.40;;;;;;;27.91;71.14;99394.72;2120913;83;31227;-63
2022/08/15 07:18:59;;;;;;;30.15;22.87;;;;;;;28.25;69.67;99398.32;2110608;83;33125;-65
2022/08/15 07:22:01;;;;;;;27.22;22.10;;;;;;;28.47;68.51;99390.64;2092635;82;29346;-65
2022/08/15 07:25:08;;;;;;;24.52;21.33;;;;;;;28.86;67.45;99395.42;2099303;83;27624;-65
2022/08/15 07:28:09;;;;;;;30.37;21.15;;;;;;;29.04;68.00;99391.92;2115544;82;28694;-66
2022/08/15 07:31:16;;;;;;;30.70;22.82;;;;;;;29.45;67.63;99383.77;2118732;82;31757;-69
2022/08/15 07:34:22;;;;;;;28.00;23.02;;;;;;;29.73;66.36;99385.76;2103180;83;33148;-69
2022/08/15 07:37:26;;;;;;;32.03;23.57;;;;;;;29.83;65.45;99381.98;2119677;82;29362;-69
2022/08/15 07:40:36;;;;;;;24.57;21.50;;;;;;;30.01;65.07;99383.44;2105545;83;27895;-70
2022/08/15 07:43:38;;;;;;;26.97;22.55;;;;;;;30.16;65.01;99380.30;2118191;82;28683;-68
2022/08/15 07:46:51;;;;;;;25.70;22.20;;;;;;;30.43;64.06;99380.56;2140405;80;30985;-67
2022/08/15 07:50:13;;;;;;;25.40;21.23;;;;;;;30.61;63.74;99377.00;2151348;80;33039;-65
2022/08/15 07:53:23;;;;;;;27.62;23.12;;;;;;;30.77;63.46;99378.27;2132569;80;29354;-65
2022/08/15 07:56:28;;;;;;;23.32;20.72;;;;;;;30.97;62.46;99378.00;2133424;80;27490;-66
2022/08/15 07:59:36;;;;;;;24.63;20.32;;;;;;;31.07;61.06;99375.55;2147572;80;29451;-67
2022/08/15 08:02:53;;;;;;;30.17;21.75;;;;;;;31.24;61.39;99376.82;2154534;80;31070;-66
2022/08/15 08:06:02;;;;;;;22.55;20.05;;;;;;;31.45;60.09;99380.44;2169275;81;33109;-69
2022/08/15 08:09:21;;;;;;;23.32;20.80;;;;;;;31.52;60.50;99375.63;2161866;80;29387;-70
2022/08/15 08:13:01;;;;;;;21.45;19.12;;;;;;;31.74;59.37;99379.81;2136812;80;27761;-66
2022/08/15 08:16:22;;;;;;;24.67;20.17;;;;;;;31.74;57.82;99377.05;2151473;82;28735;-65
2022/08/15 08:19:32;;;;;;;25.35;21.90;;;;;;;31.81;58.77;99380.00;2109502;82;31051;-66
2022/08/15 08:22:49;;;;;;;25.57;20.10;;;;;;;31.95;58.04;99376.44;2108517;82;34658;-69
2022/08/15 08:26:32;;;;;;;21.37;19.02;;;;;;;32.09;57.14;99367.91;2086743;82;30248;-68
2022/08/15 08:29:45;;;;;;;22.65;18.95;;;;;;;32.10;56.84;99366.27;2130553;82;27497;-65
2022/08/15 08:33:00;;;;;;;22.00;18.52;;;;;;;32.04;56.55;99363.08;2112753;82;29521;-66
2022/08/15 08:36:21;;;;;;;20.48;18.17;;;;;;;32.16;56.19;99365.84;2119764;82;31960;-71
2022/08/15 08:39:43;;;;;;;19.62;17.57;;;;;;;32.18;55.84;99375.32;2105159;82;33660;-66
2022/08/15 08:43:13;;;;;;;21.02;18.40;;;;;;;32.33;56.49;99367.38;2111931;83;27651;-65
2022/08/15 08:46:48;;;;;;;21.25;18.92;;;;;;;32.48;54.04;99367.41;2132046;82;27588;-68
2022/08/15 08:50:19;;;;;;;20.37;18.25;;;;;;;32.36;54.06;99374.36;2146509;80;28868;-67
2022/08/15 08:53:50;;;;;;;21.17;18.30;;;;;;;32.00;54.03;99374.36;2148099;81;31084;-65
2022/08/15 08:56:53;;;;;;;19.52;17.60;;;;;;;31.91;52.72;99382.70;2162899;81;33038;-66
2022/08/15 09:00:09;;;;;;;19.25;17.30;;;;;;;31.80;53.16;99381.61;2159795;82;29949;-65
2022/08/15 09:03:38;;;;;;;20.45;18.23;;;;;;;31.69;53.29;99377.70;2153370;80;27623;-68
2022/08/15 09:06:40;;;;;;;22.85;20.20;;;;;;;31.40;52.46;99370.61;2139221;80;28167;-65
2022/08/15 09:09:43;;;;;;;18.12;16.25;;;;;;;31.11;52.91;99363.45;2153832;80;31207;-64
2022/08/15 09:16:34;;;;;;;20.52;18.35;;;;;;;30.98;54.08;99365.03;2149432;80;29315;-64
2022/08/15 09:19:47;;;;;;;21.37;18.37;;;;;;;30.94;54.30;99376.25;2118448;82;27553;-66
2022/08/15 09:22:50;;;;;;;18.87;16.05;;;;;;;30.68;53.54;99370.00;2063316;83;28676;-68
2022/08/15 09:26:07;;;;;;;18.90;16.50;;;;;;;30.58;53.90;99365.02;2066943;83;31858;-65
2022/08/15 09:29:19;;;;;;;20.37;18.20;;;;;;;30.61;53.34;99364.55;2044865;83;32991;-68
2022/08/15 09:32:38;;;;;;;26.52;21.17;;;;;;;30.53;54.42;99361.50;2066795;83;30468;-66
2022/08/15 09:36:00;;;;;;;19.17;17.20;;;;;;;30.60;54.41;99358.17;2070485;83;27807;-68
2022/08/15 09:39:42;;;;;;;25.80;21.85;;;;;;;30.61;54.32;99358.48;2060922;85;28653;-65
2022/08/15 09:43:09;;;;;;;19.20;16.75;;;;;;;30.51;53.94;99358.16;2059147;83;31149;-70
2022/08/15 09:46:52;;;;;;;18.80;16.80;;;;;;;30.47;54.60;99349.45;2072144;83;33102;-67
2022/08/15 09:50:38;;;;;;;19.75;17.73;;;;;;;30.26;53.67;99341.09;2064336;83;29384;-67
2022/08/15 09:54:07;;;;;;;19.40;17.37;;;;;;;30.00;53.63;99331.17;2067495;84;27646;-65
2022/08/15 09:57:36;;;;;;;17.23;15.40;;;;;;;29.73;53.68;99326.41;2065278;85;28758;-68
2022/08/15 10:00:52;;;;;;;16.95;15.08;;;;;;;29.55;53.43;99329.42;2113635;83;31105;-64
2022/08/15 10:03:59;;;;;;;102.47;63.23;;;;;;;29.35;54.47;99329.59;2115063;82;33005;-68
2022/08/15 10:07:12;;;;;;;40.88;25.32;;;;;;;29.28;53.56;99323.27;2112906;82;29580;-65
2022/08/15 10:10:36;;;;;;;28.60;21.87;;;;;;;29.10;54.37;99323.48;2108914;80;27544;-65
2022/08/15 10:13:45;;;;;;;20.48;16.57;;;;;;;29.08;54.69;99319.55;2104633;83;29477;-66
2022/08/15 10:16:52;;;;;;;16.15;14.47;;;;;;;29.14;55.39;99311.47;2139215;82;31026;-68
2022/08/15 10:19:56;;;;;;;15.75;14.07;;;;;;;29.17;55.07;99314.61;2153524;81;47547;-69
2022/08/15 10:23:08;;;;;;;21.45;16.65;;;;;;;29.11;54.23;99306.70;2168380;81;29358;-68
2022/08/15 10:26:27;;;;;;;16.27;13.32;;;;;;;29.09;53.90;99306.08;2165657;82;28043;-70
2022/08/15 10:29:30;;;;;;;16.32;12.33;;;;;;;28.98;53.71;99311.45;2168611;81;28721;-67
2022/08/15 10:32:37;;;;;;;14.20;12.75;;;;;;;28.74;53.56;99300.16;2167851;82;31114;-68
2022/08/15 10:35:44;;;;;;;14.90;13.40;;;;;;;28.61;53.71;99299.64;2147833;81;32994;-69
2022/08/15 10:38:54;;;;;;;16.32;14.07;;;;;;;28.50;53.94;99297.91;2154581;80;30104;-69
2022/08/15 10:42:31;;;;;;;14.70;13.28;;;;;;;28.40;54.01;99298.05;2160548;82;27675;-67
2022/08/15 10:45:41;;;;;;;13.40;12.07;;;;;;;28.35;54.16;99298.70;2144668;81;28683;-66
2022/08/15 10:49:09;;;;;;;15.93;12.58;;;;;;;28.34;54.52;99313.00;2073297;84;31012;-69
2022/08/15 10:52:18;;;;;;;14.10;12.60;;;;;;;28.38;54.49;99300.17;2015650;87;32973;-67
2022/08/15 10:55:31;;;;;;;13.85;12.55;;;;;;;28.38;54.46;99296.88;2021513;86;30192;-65
2022/08/15 10:58:34;;;;;;;13.60;11.80;;;;;;;28.40;54.55;99295.30;2025604;87;27818;-67
2022/08/15 11:01:37;;;;;;;17.62;14.00;;;;;;;28.44;54.20;99296.02;2026165;86;29257;-64
2022/08/15 11:04:38;;;;;;;14.23;12.30;;;;;;;28.44;54.68;99284.16;2013552;87;31129;-65
2022/08/15 11:07:47;;;;;;;13.22;11.93;;;;;;;28.44;54.65;99282.23;2008349;87;33781;-66
2022/08/15 11:10:49;;;;;;;13.53;12.13;;;;;;;28.48;54.63;99282.63;2009605;87;29348;-65
2022/08/15 11:13:58;;;;;;;14.13;12.82;;;;;;;28.44;54.04;99285.54;2015881;86;27613;-67
2022/08/15 11:17:01;;;;;;;14.28;12.82;;;;;;;28.40;54.41;99282.90;2022616;87;28764;-68
2022/08/15 11:20:14;;;;;;;16.70;14.68;;;;;;;28.34;53.92;99279.94;2037627;85;31033;-67
2022/08/15 11:23:31;;;;;;;14.23;12.90;;;;;;;28.35;54.00;99283.56;2036827;87;33273;-68
2022/08/15 11:26:37;;;;;;;14.05;12.55;;;;;;;28.37;54.19;99286.08;2037978;87;29344;-65
2022/08/15 11:29:39;;;;;;;12.75;11.45;;;;;;;28.39;54.44;99281.20;2089972;83;27838;-66
2022/08/15 11:32:40;;;;;;;14.25;12.75;;;;;;;28.40;53.98;99291.16;2122269;82;28669;-65
2022/08/15 11:35:41;;;;;;;14.10;12.60;;;;;;;28.42;54.32;99284.91;2119390;83;30993;-69
2022/08/15 11:38:51;;;;;;;13.28;11.90;;;;;;;28.48;54.25;99276.61;2121775;83;33001;-67
2022/08/15 11:42:04;;;;;;;15.63;13.40;;;;;;;28.53;53.70;99285.59;2122945;83;29972;-67
2022/08/15 11:45:16;;;;;;;13.43;12.03;;;;;;;28.62;53.95;99283.42;2112223;83;27561;-66
2022/08/15 11:48:38;;;;;;;13.70;12.33;;;;;;;28.70;53.65;99280.43;2138155;81;28672;-68
2022/08/15 11:51:43;;;;;;;12.45;11.25;;;;;;;28.74;53.41;99269.83;2146436;80;31058;-69
2022/08/15 11:54:44;;;;;;;12.68;11.38;;;;;;;28.84;53.27;99259.70;2156978;81;33890;-66
2022/08/15 11:57:53;;;;;;;12.13;10.98;;;;;;;28.90;52.93;99261.03;2154182;80;29387;-69
2022/08/15 12:00:57;;;;;;;13.70;12.10;;;;;;;28.93;52.25;99263.87;2155372;81;27601;-69
2022/08/15 12:04:06;;;;;;;13.95;12.47;;;;;;;28.92;51.94;99262.17;2158669;80;29450;-68
2022/08/15 12:07:27;;;;;;;13.50;12.10;;;;;;;28.88;51.85;99260.41;2154899;81;32157;-66
2022/08/15 12:10:37;;;;;;;12.43;11.22;;;;;;;28.87;52.34;99262.02;2168489;81;32984;-70
2022/08/15 12:13:41;;;;;;;12.60;11.30;;;;;;;28.90;51.55;99269.30;2161519;81;30255;-71
2022/08/15 12:16:52;;;;;;;12.00;10.88;;;;;;;28.91;51.67;99266.86;2148087;80;27783;-68
2022/08/15 12:19:55;;;;;;;12.00;10.68;;;;;;;28.91;52.08;99265.48;2131892;83;28847;-70
2022/08/15 12:23:19;;;;;;;17.32;10.78;;;;;;;28.93;51.55;99278.52;2115533;83;31025;-70
2022/08/15 12:26:26;;;;;;;12.47;11.38;;;;;;;28.84;51.29;99270.73;2131181;83;33893;-69
2022/08/15 12:29:31;;;;;;;13.72;12.28;;;;;;;28.79;51.43;99264.51;2107702;83;30184;-68
2022/08/15 12:32:32;;;;;;;14.35;12.82;;;;;;;28.71;51.21;99261.42;2125544;82;27501;-70
2022/08/15 12:35:34;;;;;;;14.73;12.78;;;;;;;28.66;51.15;99259.33;2124776;83;28746;-69
2022/08/15 12:38:36;;;;;;;13.40;11.80;;;;;;;28.62;51.19;99259.48;2117197;82;31066;-69
2022/08/15 12:41:39;;;;;;;15.13;13.65;;;;;;;28.52;51.17;99259.64;2125529;82;34141;-70
2022/08/15 12:44:42;;;;;;;16.67;11.87;;;;;;;28.46;51.31;99258.07;2124036;83;30033;-68
2022/08/15 12:47:45;;;;;;;11.47;10.23;;;;;;;28.43;51.32;99255.75;2131113;82;27784;-69
2022/08/15 12:50:46;;;;;;;14.80;12.60;;;;;;;28.42;50.22;99245.79;2144847;80;28638;-70
2022/08/15 12:53:47;;;;;;;20.32;18.25;;;;;;;28.44;50.58;99242.28;2142514;80;31876;-68
2022/08/15 12:56:48;;;;;;;14.40;11.22;;;;;;;28.45;50.60;99239.84;2133643;81;33084;-69
2022/08/15 12:59:50;;;;;;;12.23;11.12;;;;;;;28.44;50.41;99235.40;2162334;82;28748;-68
2022/08/15 13:02:51;;;;;;;12.28;11.10;;;;;;;28.43;50.83;99232.33;2156372;80;27564;-69
2022/08/15 13:06:07;;;;;;;12.53;11.33;;;;;;;28.46;51.41;99225.55;2166430;80;28651;-70
2022/08/15 13:09:10;;;;;;;12.30;11.20;;;;;;;28.53;51.60;99225.52;2155876;81;31030;-66
2022/08/15 13:12:12;;;;;;;12.65;11.43;;;;;;;28.57;51.65;99220.71;2139691;81;34006;-67
2022/08/15 13:15:14;;;;;;;12.82;11.08;;;;;;;28.63;51.91;99221.73;2127338;81;28794;-69
2022/08/15 13:18:24;;;;;;;13.13;11.83;;;;;;;28.72;52.18;99218.18;2126605;82;27602;-65
2022/08/15 13:24:45;;;;;;;17.23;11.33;;;;;;;28.92;52.25;99222.20;2091150;83;31854;-65
2022/08/15 13:27:49;;;;;;;13.22;11.93;;;;;;;29.02;52.34;99215.67;2079965;83;32968;-65
2022/08/15 13:30:51;;;;;;;13.17;11.83;;;;;;;29.08;52.20;99208.41;2070578;83;29404;-65
2022/08/15 13:33:52;;;;;;;13.30;11.90;;;;;;;29.15;52.16;99209.73;2081128;83;27687;-65
2022/08/15 13:36:55;;;;;;;12.73;11.57;;;;;;;29.21;52.03;99207.42;2086988;84;28714;-67
2022/08/15 13:39:56;;;;;;;13.00;11.73;;;;;;;29.26;51.83;99203.47;2095082;84;31069;-70
2022/08/15 13:43:01;;;;;;;15.15;11.48;;;;;;;29.29;52.07;99194.74;2087884;83;33039;-65
2022/08/15 13:46:07;;;;;;;12.90;11.60;;;;;;;29.36;52.25;99191.44;2099207;82;29397;-68
2022/08/15 13:49:16;;;;;;;16.37;12.10;;;;;;;29.45;52.74;99198.88;2112447;82;27589;-64
2022/08/15 13:52:18;;;;;;;16.52;14.93;;;;;;;29.48;52.73;99195.64;2125430;82;29727;-65
2022/08/15 13:55:20;;;;;;;14.03;12.53;;;;;;;29.55;53.34;99200.56;2123096;82;31062;-65
2022/08/15 13:58:24;;;;;;;12.50;11.25;;;;;;;29.60;53.51;99199.05;2111949;82;33153;-65
2022/08/15 14:01:26;;;;;;;12.33;11.12;;;;;;;29.64;53.76;99198.88;2131375;82;30156;-66
2022/08/15 14:04:37;;;;;;;13.20;11.68;;;;;;;29.63;53.63;99190.28;2133024;82;27803;-66
2022/08/15 14:07:39;;;;;;;14.13;11.12;;;;;;;29.61;53.92;99200.73;2131005;82;28816;-65
2022/08/15 14:10:40;;;;;;;12.95;9.45;;;;;;;29.59;53.60;99196.80;2130549;82;31040;-65
2022/08/15 14:13:43;;;;;;;11.73;9.98;;;;;;;29.55;53.87;99196.43;2118657;83;33306;-69
2022/08/15 14:16:45;;;;;;;12.53;10.10;;;;;;;29.50;53.68;99196.81;2151805;82;29341;-65
2022/08/15 14:19:48;;;;;;;10.30;9.30;;;;;;;29.45;53.70;99198.88;2159522;81;27550;-67
2022/08/15 14:22:49;;;;;;;9.93;8.83;;;;;;;29.41;53.52;99191.57;2160579;80;28710;-68
2022/08/15 14:25:52;;;;;;;11.12;9.10;;;;;;;29.38;53.77;99191.19;2154965;82;31041;-67
2022/08/15 14:28:55;;;;;;;9.50;8.48;;;;;;;29.31;53.55;99184.33;2157136;80;29716;-68
2022/08/15 14:31:57;;;;;;;10.32;9.33;;;;;;;29.28;53.69;99188.09;2168110;82;29344;-67
2022/08/15 14:34:58;;;;;;;13.05;9.10;;;;;;;29.23;53.70;99175.81;2155519;80;27838;-70
2022/08/15 14:38:00;;;;;;;11.97;9.28;;;;;;;29.20;53.79;99179.56;2168063;81;28708;-65